Terminal Aerodrome Forecast
Issued by NWS

Home | Current Version | Previous Version | Text Only | Print | Product List | Glossary On
Versions: 1 2 3 4 5 6 7 8 9 10 11 12 13 14 15 16 17 18 19 20 21 22 23 24 25 26
000
FTUS45 KGJT 041938 AAQ
TAFASE
TAF AMD
KASE 041938Z 0420/0518 20013G22KT P6SM -RA VCTS BKN090CB
     FM042100 19007G17KT P6SM VCTS SCT080CB SCT200
     FM050100 21007G15KT P6SM FEW090 FEW250
     FM051200 15004KT P6SM FEW250=

USA.gov is the U.S. government's official web portal to all federal, state and local government web resources and services.